sensor_id;sensor_type;location;lat;lon;timestamp;P1;durP1;ratioP1;P2;durP2;ratioP2
51654;SDS011;37732;53.106;7.030;2023-01-05T00:00:13;18.73;;;7.30;;
51654;SDS011;37732;53.106;7.030;2023-01-05T00:02:39;16.70;;;5.40;;
51654;SDS011;37732;53.106;7.030;2023-01-05T00:05:04;17.52;;;5.05;;
51654;SDS011;37732;53.106;7.030;2023-01-05T00:07:30;14.73;;;5.57;;
51654;SDS011;37732;53.106;7.030;2023-01-05T00:09:56;17.00;;;5.60;;
51654;SDS011;37732;53.106;7.030;2023-01-05T00:12:22;15.20;;;5.40;;
51654;SDS011;37732;53.106;7.030;2023-01-05T00:15:07;14.15;;;5.15;;
51654;SDS011;37732;53.106;7.030;2023-01-05T00:17:51;20.45;;;5.90;;
51654;SDS011;37732;53.106;7.030;2023-01-05T00:20:36;15.00;;;5.15;;
51654;SDS011;37732;53.106;7.030;2023-01-05T00:23:20;15.10;;;4.63;;
51654;SDS011;37732;53.106;7.030;2023-01-05T00:25:46;16.98;;;5.93;;
51654;SDS011;37732;53.106;7.030;2023-01-05T00:28:11;18.83;;;4.32;;
51654;SDS011;37732;53.106;7.030;2023-01-05T00:30:38;14.10;;;5.35;;
51654;SDS011;37732;53.106;7.030;2023-01-05T00:33:07;15.80;;;4.57;;
51654;SDS011;37732;53.106;7.030;2023-01-05T00:35:33;14.13;;;4.40;;
51654;SDS011;37732;53.106;7.030;2023-01-05T00:37:59;13.38;;;4.78;;
51654;SDS011;37732;53.106;7.030;2023-01-05T00:40:25;15.43;;;4.93;;
51654;SDS011;37732;53.106;7.030;2023-01-05T00:42:51;19.58;;;4.72;;
51654;SDS011;37732;53.106;7.030;2023-01-05T00:45:17;15.02;;;4.32;;
51654;SDS011;37732;53.106;7.030;2023-01-05T00:47:44;12.00;;;4.28;;
51654;SDS011;37732;53.106;7.030;2023-01-05T00:50:12;14.88;;;5.60;;
51654;SDS011;37732;53.106;7.030;2023-01-05T00:52:40;14.90;;;4.88;;
51654;SDS011;37732;53.106;7.030;2023-01-05T00:55:06;14.23;;;5.35;;
51654;SDS011;37732;53.106;7.030;2023-01-05T00:57:32;12.48;;;5.47;;
51654;SDS011;37732;53.106;7.030;2023-01-05T00:59:58;11.88;;;4.55;;
51654;SDS011;37732;53.106;7.030;2023-01-05T01:02:26;12.70;;;5.07;;
51654;SDS011;37732;53.106;7.030;2023-01-05T01:04:52;15.55;;;5.95;;
51654;SDS011;37732;53.106;7.030;2023-01-05T01:07:18;17.92;;;4.82;;
51654;SDS011;37732;53.106;7.030;2023-01-05T01:09:43;16.20;;;6.63;;
51654;SDS011;37732;53.106;7.030;2023-01-05T01:12:09;22.60;;;6.05;;
51654;SDS011;37732;53.106;7.030;2023-01-05T01:14:35;20.73;;;6.05;;
51654;SDS011;37732;53.106;7.030;2023-01-05T01:17:02;14.93;;;5.20;;
51654;SDS011;37732;53.106;7.030;2023-01-05T01:19:28;16.60;;;6.13;;
51654;SDS011;37732;53.106;7.030;2023-01-05T01:21:54;19.40;;;6.70;;
51654;SDS011;37732;53.106;7.030;2023-01-05T01:24:21;16.48;;;6.13;;
51654;SDS011;37732;53.106;7.030;2023-01-05T01:26:48;25.48;;;7.05;;
51654;SDS011;37732;53.106;7.030;2023-01-05T01:29:14;18.23;;;6.57;;
51654;SDS011;37732;53.106;7.030;2023-01-05T01:31:43;15.02;;;6.05;;
51654;SDS011;37732;53.106;7.030;2023-01-05T01:34:13;17.10;;;7.47;;
51654;SDS011;37732;53.106;7.030;2023-01-05T01:36:40;19.55;;;6.65;;
51654;SDS011;37732;53.106;7.030;2023-01-05T01:39:06;23.77;;;6.53;;
51654;SDS011;37732;53.106;7.030;2023-01-05T01:41:31;18.80;;;7.53;;
51654;SDS011;37732;53.106;7.030;2023-01-05T01:43:57;28.33;;;7.53;;
51654;SDS011;37732;53.106;7.030;2023-01-05T01:46:24;24.05;;;7.45;;
51654;SDS011;37732;53.106;7.030;2023-01-05T01:48:58;21.95;;;6.90;;
51654;SDS011;37732;53.106;7.030;2023-01-05T01:51:29;29.13;;;7.80;;
51654;SDS011;37732;53.106;7.030;2023-01-05T01:54:07;23.80;;;7.32;;
51654;SDS011;37732;53.106;7.030;2023-01-05T01:56:37;19.92;;;6.03;;
51654;SDS011;37732;53.106;7.030;2023-01-05T01:59:07;17.92;;;6.68;;
51654;SDS011;37732;53.106;7.030;2023-01-05T02:05:14;19.88;;;6.43;;
51654;SDS011;37732;53.106;7.030;2023-01-05T02:07:43;27.85;;;7.32;;
51654;SDS011;37732;53.106;7.030;2023-01-05T02:10:11;23.35;;;7.18;;
51654;SDS011;37732;53.106;7.030;2023-01-05T02:12:47;24.73;;;7.03;;
51654;SDS011;37732;53.106;7.030;2023-01-05T02:15:32;20.50;;;6.43;;
51654;SDS011;37732;53.106;7.030;2023-01-05T02:34:24;20.77;;;6.88;;
51654;SDS011;37732;53.106;7.030;2023-01-05T02:36:53;19.00;;;7.65;;
51654;SDS011;37732;53.106;7.030;2023-01-05T02:42:10;18.35;;;5.95;;
51654;SDS011;37732;53.106;7.030;2023-01-05T02:44:43;16.93;;;6.67;;
51654;SDS011;37732;53.106;7.030;2023-01-05T02:50:00;22.02;;;6.97;;
51654;SDS011;37732;53.106;7.030;2023-01-05T02:53:18;18.48;;;6.47;;
51654;SDS011;37732;53.106;7.030;2023-01-05T02:55:27;20.55;;;6.13;;
51654;SDS011;37732;53.106;7.030;2023-01-05T02:58:05;23.50;;;6.72;;
51654;SDS011;37732;53.106;7.030;2023-01-05T03:00:38;18.30;;;6.45;;
51654;SDS011;37732;53.106;7.030;2023-01-05T03:05:42;19.55;;;5.80;;
51654;SDS011;37732;53.106;7.030;2023-01-05T03:08:15;15.50;;;5.82;;
51654;SDS011;37732;53.106;7.030;2023-01-05T03:11:05;17.65;;;5.40;;
51654;SDS011;37732;53.106;7.030;2023-01-05T03:14:04;17.38;;;5.82;;
51654;SDS011;37732;53.106;7.030;2023-01-05T03:16:53;19.42;;;6.35;;
51654;SDS011;37732;53.106;7.030;2023-01-05T03:19:22;18.42;;;5.72;;
51654;SDS011;37732;53.106;7.030;2023-01-05T03:24:58;24.67;;;8.20;;
51654;SDS011;37732;53.106;7.030;2023-01-05T03:27:43;15.27;;;6.30;;
51654;SDS011;37732;53.106;7.030;2023-01-05T03:30:38;20.67;;;7.10;;
51654;SDS011;37732;53.106;7.030;2023-01-05T03:33:35;19.73;;;6.17;;
51654;SDS011;37732;53.106;7.030;2023-01-05T03:36:28;22.25;;;7.75;;
51654;SDS011;37732;53.106;7.030;2023-01-05T03:39:03;26.08;;;7.20;;
51654;SDS011;37732;53.106;7.030;2023-01-05T03:41:33;17.67;;;6.53;;
51654;SDS011;37732;53.106;7.030;2023-01-05T03:43:59;18.15;;;6.18;;
51654;SDS011;37732;53.106;7.030;2023-01-05T03:46:25;18.98;;;6.35;;
51654;SDS011;37732;53.106;7.030;2023-01-05T03:48:52;19.58;;;6.00;;
51654;SDS011;37732;53.106;7.030;2023-01-05T03:51:18;19.92;;;6.68;;
51654;SDS011;37732;53.106;7.030;2023-01-05T03:53:44;20.77;;;6.85;;
51654;SDS011;37732;53.106;7.030;2023-01-05T03:56:09;15.55;;;6.05;;
51654;SDS011;37732;53.106;7.030;2023-01-05T03:58:35;20.00;;;6.78;;
51654;SDS011;37732;53.106;7.030;2023-01-05T04:01:02;18.88;;;6.80;;
51654;SDS011;37732;53.106;7.030;2023-01-05T04:03:27;18.58;;;6.75;;
51654;SDS011;37732;53.106;7.030;2023-01-05T04:05:53;19.90;;;7.25;;
51654;SDS011;37732;53.106;7.030;2023-01-05T04:08:19;22.02;;;7.18;;
51654;SDS011;37732;53.106;7.030;2023-01-05T04:10:44;19.25;;;6.38;;
51654;SDS011;37732;53.106;7.030;2023-01-05T04:13:10;17.15;;;6.15;;
51654;SDS011;37732;53.106;7.030;2023-01-05T04:15:36;21.23;;;7.38;;
51654;SDS011;37732;53.106;7.030;2023-01-05T04:18:03;17.85;;;6.13;;
51654;SDS011;37732;53.106;7.030;2023-01-05T04:20:29;19.92;;;7.32;;
51654;SDS011;37732;53.106;7.030;2023-01-05T04:22:55;17.90;;;6.20;;
51654;SDS011;37732;53.106;7.030;2023-01-05T04:25:21;18.65;;;6.88;;
51654;SDS011;37732;53.106;7.030;2023-01-05T04:27:46;20.63;;;7.13;;
51654;SDS011;37732;53.106;7.030;2023-01-05T04:30:12;24.98;;;6.65;;
51654;SDS011;37732;53.106;7.030;2023-01-05T04:32:38;20.20;;;6.10;;
51654;SDS011;37732;53.106;7.030;2023-01-05T04:35:04;21.30;;;7.65;;
51654;SDS011;37732;53.106;7.030;2023-01-05T04:37:30;17.95;;;6.45;;
51654;SDS011;37732;53.106;7.030;2023-01-05T04:39:55;20.65;;;6.72;;
51654;SDS011;37732;53.106;7.030;2023-01-05T04:42:21;20.70;;;6.43;;
51654;SDS011;37732;53.106;7.030;2023-01-05T04:44:47;21.77;;;7.63;;
51654;SDS011;37732;53.106;7.030;2023-01-05T04:47:13;20.25;;;7.18;;
51654;SDS011;37732;53.106;7.030;2023-01-05T04:49:38;21.45;;;6.90;;
51654;SDS011;37732;53.106;7.030;2023-01-05T04:52:04;26.60;;;7.43;;
51654;SDS011;37732;53.106;7.030;2023-01-05T04:54:30;20.42;;;6.82;;
51654;SDS011;37732;53.106;7.030;2023-01-05T04:56:56;21.85;;;5.93;;
51654;SDS011;37732;53.106;7.030;2023-01-05T04:59:22;16.30;;;6.30;;
51654;SDS011;37732;53.106;7.030;2023-01-05T05:01:47;21.83;;;7.75;;
51654;SDS011;37732;53.106;7.030;2023-01-05T05:04:13;21.02;;;7.25;;
51654;SDS011;37732;53.106;7.030;2023-01-05T05:06:39;23.17;;;6.95;;
51654;SDS011;37732;53.106;7.030;2023-01-05T05:09:04;22.42;;;7.68;;
51654;SDS011;37732;53.106;7.030;2023-01-05T05:11:30;17.55;;;6.63;;
51654;SDS011;37732;53.106;7.030;2023-01-05T05:13:56;20.20;;;7.50;;
51654;SDS011;37732;53.106;7.030;2023-01-05T05:16:22;22.00;;;6.93;;
51654;SDS011;37732;53.106;7.030;2023-01-05T05:18:47;22.40;;;6.97;;
51654;SDS011;37732;53.106;7.030;2023-01-05T05:21:13;16.63;;;5.90;;
51654;SDS011;37732;53.106;7.030;2023-01-05T05:23:39;14.80;;;6.15;;
51654;SDS011;37732;53.106;7.030;2023-01-05T05:26:05;20.35;;;6.32;;
51654;SDS011;37732;53.106;7.030;2023-01-05T05:28:31;17.92;;;6.25;;
51654;SDS011;37732;53.106;7.030;2023-01-05T05:30:57;22.65;;;7.72;;
51654;SDS011;37732;53.106;7.030;2023-01-05T05:33:23;23.50;;;6.75;;
51654;SDS011;37732;53.106;7.030;2023-01-05T05:35:49;20.58;;;6.22;;
51654;SDS011;37732;53.106;7.030;2023-01-05T05:38:15;17.90;;;6.55;;
51654;SDS011;37732;53.106;7.030;2023-01-05T05:40:41;17.98;;;7.03;;
51654;SDS011;37732;53.106;7.030;2023-01-05T05:43:06;22.00;;;6.43;;
51654;SDS011;37732;53.106;7.030;2023-01-05T05:45:32;15.65;;;5.20;;
51654;SDS011;37732;53.106;7.030;2023-01-05T05:47:58;16.23;;;5.55;;
51654;SDS011;37732;53.106;7.030;2023-01-05T05:50:25;17.40;;;5.30;;
51654;SDS011;37732;53.106;7.030;2023-01-05T05:52:51;15.20;;;5.40;;
51654;SDS011;37732;53.106;7.030;2023-01-05T05:55:17;17.52;;;5.90;;
51654;SDS011;37732;53.106;7.030;2023-01-05T05:57:43;20.33;;;4.70;;
51654;SDS011;37732;53.106;7.030;2023-01-05T06:00:09;20.23;;;5.82;;
51654;SDS011;37732;53.106;7.030;2023-01-05T06:02:35;17.85;;;5.50;;
51654;SDS011;37732;53.106;7.030;2023-01-05T06:05:01;15.25;;;5.68;;
51654;SDS011;37732;53.106;7.030;2023-01-05T06:07:27;16.65;;;5.43;;
51654;SDS011;37732;53.106;7.030;2023-01-05T06:09:53;23.73;;;5.65;;
51654;SDS011;37732;53.106;7.030;2023-01-05T06:12:19;17.33;;;5.80;;
51654;SDS011;37732;53.106;7.030;2023-01-05T06:14:44;19.05;;;6.80;;
51654;SDS011;37732;53.106;7.030;2023-01-05T06:17:10;19.80;;;6.28;;
51654;SDS011;37732;53.106;7.030;2023-01-05T06:19:36;21.25;;;6.65;;
51654;SDS011;37732;53.106;7.030;2023-01-05T06:22:01;24.52;;;6.22;;
51654;SDS011;37732;53.106;7.030;2023-01-05T06:24:27;23.42;;;6.70;;
51654;SDS011;37732;53.106;7.030;2023-01-05T06:26:53;15.80;;;5.63;;
51654;SDS011;37732;53.106;7.030;2023-01-05T06:29:19;19.58;;;6.47;;
51654;SDS011;37732;53.106;7.030;2023-01-05T06:31:44;16.98;;;5.65;;
51654;SDS011;37732;53.106;7.030;2023-01-05T06:34:10;19.52;;;6.88;;
51654;SDS011;37732;53.106;7.030;2023-01-05T06:36:36;16.15;;;6.03;;
51654;SDS011;37732;53.106;7.030;2023-01-05T06:39:02;21.90;;;6.55;;
51654;SDS011;37732;53.106;7.030;2023-01-05T06:41:28;19.67;;;6.55;;
51654;SDS011;37732;53.106;7.030;2023-01-05T06:43:54;18.00;;;5.93;;
51654;SDS011;37732;53.106;7.030;2023-01-05T06:46:20;24.52;;;5.68;;
51654;SDS011;37732;53.106;7.030;2023-01-05T06:48:46;14.35;;;6.75;;
51654;SDS011;37732;53.106;7.030;2023-01-05T06:51:12;17.15;;;6.35;;
51654;SDS011;37732;53.106;7.030;2023-01-05T06:53:38;18.23;;;7.07;;
51654;SDS011;37732;53.106;7.030;2023-01-05T06:56:03;15.20;;;5.93;;
51654;SDS011;37732;53.106;7.030;2023-01-05T06:58:29;15.10;;;5.97;;
51654;SDS011;37732;53.106;7.030;2023-01-05T07:00:55;17.60;;;5.88;;
51654;SDS011;37732;53.106;7.030;2023-01-05T07:03:21;16.25;;;5.57;;
51654;SDS011;37732;53.106;7.030;2023-01-05T07:05:48;19.42;;;5.82;;
51654;SDS011;37732;53.106;7.030;2023-01-05T07:08:14;14.27;;;5.15;;
51654;SDS011;37732;53.106;7.030;2023-01-05T07:10:39;18.70;;;6.43;;
51654;SDS011;37732;53.106;7.030;2023-01-05T07:13:05;19.48;;;5.43;;
51654;SDS011;37732;53.106;7.030;2023-01-05T07:15:31;20.48;;;6.40;;
51654;SDS011;37732;53.106;7.030;2023-01-05T07:17:57;20.27;;;5.75;;
51654;SDS011;37732;53.106;7.030;2023-01-05T07:20:23;16.90;;;6.07;;
51654;SDS011;37732;53.106;7.030;2023-01-05T07:22:48;21.58;;;7.32;;
51654;SDS011;37732;53.106;7.030;2023-01-05T07:25:14;18.88;;;6.13;;
51654;SDS011;37732;53.106;7.030;2023-01-05T07:27:40;18.58;;;6.38;;
51654;SDS011;37732;53.106;7.030;2023-01-05T07:30:05;16.25;;;5.82;;
51654;SDS011;37732;53.106;7.030;2023-01-05T07:32:32;16.35;;;5.43;;
51654;SDS011;37732;53.106;7.030;2023-01-05T07:34:58;18.38;;;5.97;;
51654;SDS011;37732;53.106;7.030;2023-01-05T07:37:23;23.70;;;6.78;;
51654;SDS011;37732;53.106;7.030;2023-01-05T07:39:49;17.08;;;6.30;;
51654;SDS011;37732;53.106;7.030;2023-01-05T07:42:15;18.73;;;7.45;;
51654;SDS011;37732;53.106;7.030;2023-01-05T07:44:40;18.23;;;6.43;;
51654;SDS011;37732;53.106;7.030;2023-01-05T07:47:06;15.15;;;6.43;;
51654;SDS011;37732;53.106;7.030;2023-01-05T07:49:32;22.35;;;7.18;;
51654;SDS011;37732;53.106;7.030;2023-01-05T07:51:58;17.75;;;6.22;;
51654;SDS011;37732;53.106;7.030;2023-01-05T07:54:24;22.42;;;6.85;;
51654;SDS011;37732;53.106;7.030;2023-01-05T07:56:49;21.25;;;6.65;;
51654;SDS011;37732;53.106;7.030;2023-01-05T07:59:15;17.70;;;6.03;;
51654;SDS011;37732;53.106;7.030;2023-01-05T08:01:41;16.17;;;6.18;;
51654;SDS011;37732;53.106;7.030;2023-01-05T08:04:07;16.45;;;5.55;;
51654;SDS011;37732;53.106;7.030;2023-01-05T08:06:34;16.02;;;6.05;;
51654;SDS011;37732;53.106;7.030;2023-01-05T08:08:59;18.52;;;6.25;;
51654;SDS011;37732;53.106;7.030;2023-01-05T08:11:45;17.00;;;6.28;;
51654;SDS011;37732;53.106;7.030;2023-01-05T08:14:11;21.98;;;7.72;;
51654;SDS011;37732;53.106;7.030;2023-01-05T08:16:37;18.95;;;5.97;;
51654;SDS011;37732;53.106;7.030;2023-01-05T08:19:02;17.75;;;5.93;;
51654;SDS011;37732;53.106;7.030;2023-01-05T08:21:28;16.63;;;6.15;;
51654;SDS011;37732;53.106;7.030;2023-01-05T08:23:53;17.02;;;5.85;;
51654;SDS011;37732;53.106;7.030;2023-01-05T08:26:22;15.90;;;4.85;;
51654;SDS011;37732;53.106;7.030;2023-01-05T08:28:48;14.23;;;4.85;;
51654;SDS011;37732;53.106;7.030;2023-01-05T08:33:45;15.43;;;5.10;;
51654;SDS011;37732;53.106;7.030;2023-01-05T08:36:12;19.35;;;5.00;;
51654;SDS011;37732;53.106;7.030;2023-01-05T08:38:39;14.38;;;4.97;;
51654;SDS011;37732;53.106;7.030;2023-01-05T08:43:49;16.05;;;4.35;;
51654;SDS011;37732;53.106;7.030;2023-01-05T08:46:17;18.33;;;6.00;;
51654;SDS011;37732;53.106;7.030;2023-01-05T08:48:46;18.08;;;5.72;;
51654;SDS011;37732;53.106;7.030;2023-01-05T08:51:13;15.18;;;5.05;;
51654;SDS011;37732;53.106;7.030;2023-01-05T08:53:38;17.20;;;5.50;;
51654;SDS011;37732;53.106;7.030;2023-01-05T08:56:05;14.30;;;5.00;;
51654;SDS011;37732;53.106;7.030;2023-01-05T08:58:31;13.98;;;5.35;;
51654;SDS011;37732;53.106;7.030;2023-01-05T09:00:56;10.40;;;4.45;;
51654;SDS011;37732;53.106;7.030;2023-01-05T09:03:22;15.48;;;4.68;;
51654;SDS011;37732;53.106;7.030;2023-01-05T09:05:50;16.45;;;6.40;;
51654;SDS011;37732;53.106;7.030;2023-01-05T09:08:17;14.52;;;5.78;;
51654;SDS011;37732;53.106;7.030;2023-01-05T09:10:43;16.70;;;5.28;;
51654;SDS011;37732;53.106;7.030;2023-01-05T09:13:08;17.23;;;6.47;;
51654;SDS011;37732;53.106;7.030;2023-01-05T09:15:35;18.70;;;6.03;;
51654;SDS011;37732;53.106;7.030;2023-01-05T09:18:01;19.95;;;6.30;;
51654;SDS011;37732;53.106;7.030;2023-01-05T09:20:27;18.42;;;6.53;;
51654;SDS011;37732;53.106;7.030;2023-01-05T09:22:52;17.77;;;5.68;;
51654;SDS011;37732;53.106;7.030;2023-01-05T09:25:18;17.27;;;5.40;;
51654;SDS011;37732;53.106;7.030;2023-01-05T09:27:44;18.27;;;5.63;;
51654;SDS011;37732;53.106;7.030;2023-01-05T09:30:09;23.27;;;7.07;;
51654;SDS011;37732;53.106;7.030;2023-01-05T09:32:36;19.30;;;6.05;;
51654;SDS011;37732;53.106;7.030;2023-01-05T09:35:01;23.50;;;6.43;;
51654;SDS011;37732;53.106;7.030;2023-01-05T09:37:27;22.90;;;6.32;;
51654;SDS011;37732;53.106;7.030;2023-01-05T09:39:53;21.63;;;5.80;;
51654;SDS011;37732;53.106;7.030;2023-01-05T09:42:19;16.75;;;6.70;;
51654;SDS011;37732;53.106;7.030;2023-01-05T09:44:49;15.73;;;5.75;;
51654;SDS011;37732;53.106;7.030;2023-01-05T09:47:35;20.58;;;5.95;;
51654;SDS011;37732;53.106;7.030;2023-01-05T09:50:23;19.52;;;6.30;;
51654;SDS011;37732;53.106;7.030;2023-01-05T09:52:52;16.90;;;5.60;;
51654;SDS011;37732;53.106;7.030;2023-01-05T09:55:22;18.02;;;6.20;;
51654;SDS011;37732;53.106;7.030;2023-01-05T09:57:52;17.10;;;5.60;;
51654;SDS011;37732;53.106;7.030;2023-01-05T10:00:21;14.55;;;4.75;;
51654;SDS011;37732;53.106;7.030;2023-01-05T10:02:50;19.02;;;4.75;;
51654;SDS011;37732;53.106;7.030;2023-01-05T10:05:26;13.10;;;4.47;;
51654;SDS011;37732;53.106;7.030;2023-01-05T10:07:57;10.82;;;4.32;;
51654;SDS011;37732;53.106;7.030;2023-01-05T10:13:18;12.48;;;4.80;;
51654;SDS011;37732;53.106;7.030;2023-01-05T10:15:49;16.70;;;4.82;;
51654;SDS011;37732;53.106;7.030;2023-01-05T10:18:20;12.35;;;3.88;;
51654;SDS011;37732;53.106;7.030;2023-01-05T10:26:26;13.88;;;4.55;;
51654;SDS011;37732;53.106;7.030;2023-01-05T10:29:04;12.55;;;4.70;;
51654;SDS011;37732;53.106;7.030;2023-01-05T10:45:32;16.27;;;5.43;;
51654;SDS011;37732;53.106;7.030;2023-01-05T10:48:01;17.02;;;6.13;;
51654;SDS011;37732;53.106;7.030;2023-01-05T10:56:00;12.88;;;4.85;;
51654;SDS011;37732;53.106;7.030;2023-01-05T10:58:26;13.82;;;4.47;;
51654;SDS011;37732;53.106;7.030;2023-01-05T11:00:57;11.93;;;4.38;;
51654;SDS011;37732;53.106;7.030;2023-01-05T11:03:34;15.10;;;4.78;;
51654;SDS011;37732;53.106;7.030;2023-01-05T11:06:04;11.77;;;3.72;;
51654;SDS011;37732;53.106;7.030;2023-01-05T11:08:31;12.52;;;4.30;;
51654;SDS011;37732;53.106;7.030;2023-01-05T11:11:02;10.88;;;4.88;;
51654;SDS011;37732;53.106;7.030;2023-01-05T11:15:59;13.98;;;3.92;;
51654;SDS011;37732;53.106;7.030;2023-01-05T11:21:06;15.55;;;4.18;;
51654;SDS011;37732;53.106;7.030;2023-01-05T11:23:40;11.65;;;3.85;;
51654;SDS011;37732;53.106;7.030;2023-01-05T11:26:17;13.80;;;3.75;;
51654;SDS011;37732;53.106;7.030;2023-01-05T11:31:58;11.80;;;3.47;;
51654;SDS011;37732;53.106;7.030;2023-01-05T11:34:30;9.15;;;3.30;;
51654;SDS011;37732;53.106;7.030;2023-01-05T11:44:42;7.63;;;2.20;;
51654;SDS011;37732;53.106;7.030;2023-01-05T11:47:17;9.80;;;2.10;;
51654;SDS011;37732;53.106;7.030;2023-01-05T11:49:47;9.50;;;2.22;;
51654;SDS011;37732;53.106;7.030;2023-01-05T11:52:26;6.97;;;1.98;;
51654;SDS011;37732;53.106;7.030;2023-01-05T11:54:58;8.77;;;2.63;;
51654;SDS011;37732;53.106;7.030;2023-01-05T11:57:26;7.13;;;2.63;;
51654;SDS011;37732;53.106;7.030;2023-01-05T11:59:52;7.63;;;2.50;;
51654;SDS011;37732;53.106;7.030;2023-01-05T12:05:16;11.68;;;3.58;;
51654;SDS011;37732;53.106;7.030;2023-01-05T12:07:52;12.65;;;4.03;;
51654;SDS011;37732;53.106;7.030;2023-01-05T12:14:21;13.90;;;4.00;;
51654;SDS011;37732;53.106;7.030;2023-01-05T12:19:08;12.45;;;3.80;;
51654;SDS011;37732;53.106;7.030;2023-01-05T12:22:07;14.55;;;3.85;;
51654;SDS011;37732;53.106;7.030;2023-01-05T12:24:47;16.88;;;4.30;;
51654;SDS011;37732;53.106;7.030;2023-01-05T12:30:11;14.82;;;5.65;;
51654;SDS011;37732;53.106;7.030;2023-01-05T12:47:11;11.05;;;3.75;;
51654;SDS011;37732;53.106;7.030;2023-01-05T12:49:59;12.48;;;3.83;;
51654;SDS011;37732;53.106;7.030;2023-01-05T12:52:35;11.35;;;4.00;;
51654;SDS011;37732;53.106;7.030;2023-01-05T12:57:50;13.27;;;4.15;;
51654;SDS011;37732;53.106;7.030;2023-01-05T13:00:22;10.82;;;4.47;;
51654;SDS011;37732;53.106;7.030;2023-01-05T13:03:08;14.23;;;3.95;;
51654;SDS011;37732;53.106;7.030;2023-01-05T13:06:01;12.55;;;3.85;;
51654;SDS011;37732;53.106;7.030;2023-01-05T13:11:34;10.55;;;3.70;;
51654;SDS011;37732;53.106;7.030;2023-01-05T13:14:23;16.75;;;3.72;;
51654;SDS011;37732;53.106;7.030;2023-01-05T13:16:53;12.40;;;3.42;;
51654;SDS011;37732;53.106;7.030;2023-01-05T13:19:28;15.30;;;4.60;;
51654;SDS011;37732;53.106;7.030;2023-01-05T13:22:00;12.90;;;4.07;;
51654;SDS011;37732;53.106;7.030;2023-01-05T13:24:34;16.33;;;4.30;;
51654;SDS011;37732;53.106;7.030;2023-01-05T13:27:03;13.30;;;3.45;;
51654;SDS011;37732;53.106;7.030;2023-01-05T13:29:31;12.23;;;4.20;;
51654;SDS011;37732;53.106;7.030;2023-01-05T13:40:12;13.57;;;4.43;;
51654;SDS011;37732;53.106;7.030;2023-01-05T13:54:41;14.40;;;5.13;;
51654;SDS011;37732;53.106;7.030;2023-01-05T13:57:23;10.70;;;4.80;;
51654;SDS011;37732;53.106;7.030;2023-01-05T13:59:51;14.00;;;4.53;;
51654;SDS011;37732;53.106;7.030;2023-01-05T14:05:00;14.05;;;5.05;;
51654;SDS011;37732;53.106;7.030;2023-01-05T14:07:29;12.90;;;5.43;;
51654;SDS011;37732;53.106;7.030;2023-01-05T14:09:55;20.02;;;4.82;;
51654;SDS011;37732;53.106;7.030;2023-01-05T14:12:23;17.65;;;4.97;;
51654;SDS011;37732;53.106;7.030;2023-01-05T14:25:47;12.75;;;4.90;;
51654;SDS011;37732;53.106;7.030;2023-01-05T14:30:49;12.63;;;5.00;;
51654;SDS011;37732;53.106;7.030;2023-01-05T14:33:17;14.60;;;5.93;;
51654;SDS011;37732;53.106;7.030;2023-01-05T14:35:43;11.23;;;4.88;;
51654;SDS011;37732;53.106;7.030;2023-01-05T15:14:50;17.48;;;6.00;;
51654;SDS011;37732;53.106;7.030;2023-01-05T15:31:49;20.38;;;7.38;;
51654;SDS011;37732;53.106;7.030;2023-01-05T15:34:36;17.65;;;5.88;;
51654;SDS011;37732;53.106;7.030;2023-01-05T15:39:59;19.52;;;7.07;;
51654;SDS011;37732;53.106;7.030;2023-01-05T15:45:08;21.35;;;6.55;;
51654;SDS011;37732;53.106;7.030;2023-01-05T15:47:55;16.20;;;6.95;;
51654;SDS011;37732;53.106;7.030;2023-01-05T15:50:25;20.05;;;7.20;;
51654;SDS011;37732;53.106;7.030;2023-01-05T15:52:59;22.95;;;7.60;;
51654;SDS011;37732;53.106;7.030;2023-01-05T15:55:26;24.95;;;7.55;;
51654;SDS011;37732;53.106;7.030;2023-01-05T16:03:21;20.45;;;7.47;;
51654;SDS011;37732;53.106;7.030;2023-01-05T16:05:58;19.52;;;7.45;;
51654;SDS011;37732;53.106;7.030;2023-01-05T16:08:32;22.75;;;7.65;;
51654;SDS011;37732;53.106;7.030;2023-01-05T16:11:00;26.30;;;9.48;;
51654;SDS011;37732;53.106;7.030;2023-01-05T16:13:50;23.10;;;8.25;;
51654;SDS011;37732;53.106;7.030;2023-01-05T16:16:30;20.30;;;8.15;;
51654;SDS011;37732;53.106;7.030;2023-01-05T16:19:03;21.85;;;7.43;;
51654;SDS011;37732;53.106;7.030;2023-01-05T16:24:16;18.40;;;7.35;;
51654;SDS011;37732;53.106;7.030;2023-01-05T16:26:50;22.60;;;9.88;;
51654;SDS011;37732;53.106;7.030;2023-01-05T16:29:20;26.30;;;8.32;;
51654;SDS011;37732;53.106;7.030;2023-01-05T16:31:53;24.02;;;8.23;;
51654;SDS011;37732;53.106;7.030;2023-01-05T16:34:20;26.73;;;8.70;;
51654;SDS011;37732;53.106;7.030;2023-01-05T16:39:24;21.27;;;8.00;;
51654;SDS011;37732;53.106;7.030;2023-01-05T16:42:36;23.83;;;7.50;;
51654;SDS011;37732;53.106;7.030;2023-01-05T16:44:58;18.75;;;8.68;;
51654;SDS011;37732;53.106;7.030;2023-01-05T16:47:37;24.30;;;7.97;;
51654;SDS011;37732;53.106;7.030;2023-01-05T16:52:50;20.27;;;7.90;;
51654;SDS011;37732;53.106;7.030;2023-01-05T16:57:48;19.90;;;9.15;;
51654;SDS011;37732;53.106;7.030;2023-01-05T17:00:33;21.52;;;7.93;;
51654;SDS011;37732;53.106;7.030;2023-01-05T17:03:01;20.25;;;7.93;;
51654;SDS011;37732;53.106;7.030;2023-01-05T17:05:51;22.80;;;8.43;;
51654;SDS011;37732;53.106;7.030;2023-01-05T17:08:20;27.38;;;8.68;;
51654;SDS011;37732;53.106;7.030;2023-01-05T17:10:48;23.55;;;8.27;;
51654;SDS011;37732;53.106;7.030;2023-01-05T17:13:16;32.72;;;8.63;;
51654;SDS011;37732;53.106;7.030;2023-01-05T17:15:44;21.33;;;8.75;;
51654;SDS011;37732;53.106;7.030;2023-01-05T17:20:41;22.50;;;8.65;;
51654;SDS011;37732;53.106;7.030;2023-01-05T17:23:11;28.63;;;9.80;;
51654;SDS011;37732;53.106;7.030;2023-01-05T17:28:08;22.40;;;8.25;;
51654;SDS011;37732;53.106;7.030;2023-01-05T17:30:34;24.30;;;9.00;;
51654;SDS011;37732;53.106;7.030;2023-01-05T17:33:00;22.48;;;8.38;;
51654;SDS011;37732;53.106;7.030;2023-01-05T17:35:27;33.50;;;9.10;;
51654;SDS011;37732;53.106;7.030;2023-01-05T17:37:52;27.80;;;9.20;;
51654;SDS011;37732;53.106;7.030;2023-01-05T17:40:19;24.08;;;9.30;;
51654;SDS011;37732;53.106;7.030;2023-01-05T17:42:58;28.85;;;9.45;;
51654;SDS011;37732;53.106;7.030;2023-01-05T17:45:41;28.25;;;8.60;;
51654;SDS011;37732;53.106;7.030;2023-01-05T17:48:28;26.23;;;9.20;;
51654;SDS011;37732;53.106;7.030;2023-01-05T17:50:55;25.77;;;9.75;;
51654;SDS011;37732;53.106;7.030;2023-01-05T17:53:21;29.73;;;8.68;;
51654;SDS011;37732;53.106;7.030;2023-01-05T17:55:46;24.73;;;9.20;;
51654;SDS011;37732;53.106;7.030;2023-01-05T17:58:13;25.30;;;8.52;;
51654;SDS011;37732;53.106;7.030;2023-01-05T18:00:39;24.08;;;10.00;;
51654;SDS011;37732;53.106;7.030;2023-01-05T18:03:13;30.80;;;9.50;;
51654;SDS011;37732;53.106;7.030;2023-01-05T18:05:41;24.98;;;10.27;;
51654;SDS011;37732;53.106;7.030;2023-01-05T18:08:09;25.73;;;9.40;;
51654;SDS011;37732;53.106;7.030;2023-01-05T18:10:35;24.98;;;9.18;;
51654;SDS011;37732;53.106;7.030;2023-01-05T18:13:03;23.30;;;10.00;;
51654;SDS011;37732;53.106;7.030;2023-01-05T18:15:34;26.73;;;9.50;;
51654;SDS011;37732;53.106;7.030;2023-01-05T18:18:08;28.45;;;10.55;;
51654;SDS011;37732;53.106;7.030;2023-01-05T18:20:38;24.63;;;9.27;;
51654;SDS011;37732;53.106;7.030;2023-01-05T18:23:04;21.77;;;9.05;;
51654;SDS011;37732;53.106;7.030;2023-01-05T18:25:30;31.17;;;8.98;;
51654;SDS011;37732;53.106;7.030;2023-01-05T18:27:56;29.88;;;9.60;;
51654;SDS011;37732;53.106;7.030;2023-01-05T18:30:22;32.78;;;9.55;;
51654;SDS011;37732;53.106;7.030;2023-01-05T18:32:47;25.33;;;8.25;;
51654;SDS011;37732;53.106;7.030;2023-01-05T18:35:13;31.65;;;9.57;;